Station: ELLX - 15/12/2018 00:50Z (il y a 22 minutes)
ELLX 150050Z AUTO VRB02KT 9999 OVC024/// M02/M06 Q1023 NOSIG
Vent de direction variable: 2 kt
Visibilité > 10 km
Ciel couvert à 2400 pieds
Température: -02ºC - Point de rosée: -06ºC - QNH: 1023 hPa
Pas de changement significatif prévu dans les 2 heures qui suivent l'observation